Time;durP1;ratioP1;P1;durP2;ratioP2;P2;SDS_P1;SDS_P2;PMS_P1;PMS_P2;Temp;Humidity;BMP_temperature;BMP_pressure;BME280_temperature;BME280_humidity;BME280_pressure;Samples;Min_cycle;Max_cycle;Signal;HPM_P1;HPM_P2
2023/04/05 00:00:09;;;;;;;0.60;0.32;;;;;;;9.47;72.92;101582.09;4985493;28;20065;-78
2023/04/05 00:02:39;;;;;;;0.22;0.20;;;;;;;9.15;74.98;101569.41;4985157;28;20074;-84
2023/04/05 00:05:08;;;;;;;0.57;0.40;;;;;;;9.06;76.32;101568.97;4987710;28;20077;-78
2023/04/05 00:07:37;;;;;;;1.00;0.50;;;;;;;9.15;78.58;101573.69;4986778;28;20770;-84
2023/04/05 00:10:06;;;;;;;1.77;0.52;;;;;;;9.24;77.90;101561.22;4990041;28;20050;-81
2023/04/05 00:12:35;;;;;;;1.15;0.60;;;;;;;9.31;75.82;101563.28;4991136;28;20088;-86
2023/04/05 00:15:05;;;;;;;1.08;0.40;;;;;;;9.42;75.22;101564.69;4982204;28;20050;-81
2023/04/05 00:17:34;;;;;;;1.13;0.32;;;;;;;9.41;71.94;101555.19;4986065;28;20050;-83
2023/04/05 00:20:06;;;;;;;0.30;0.30;;;;;;;9.49;73.12;101560.69;4983716;28;20061;-79
2023/04/05 00:22:36;;;;;;;0.90;0.30;;;;;;;9.67;74.84;101557.16;4990401;28;20060;-79
2023/04/05 00:25:04;;;;;;;0.30;0.30;;;;;;;9.90;74.95;101560.84;4985298;28;20074;-78
2023/04/05 00:27:33;;;;;;;0.30;0.28;;;;;;;10.10;74.43;101557.44;4990898;28;20050;-79
2023/04/05 00:30:02;;;;;;;0.30;0.20;;;;;;;10.23;71.08;101540.75;4986867;28;20050;-79
2023/04/05 00:32:32;;;;;;;0.17;0.17;;;;;;;10.47;66.59;101544.41;4983750;28;20133;-80
2023/04/05 00:35:00;;;;;;;0.22;0.00;;;;;;;10.61;62.06;101546.72;4987888;28;20058;-78
2023/04/05 00:37:31;;;;;;;0.60;0.10;;;;;;;10.63;62.15;101550.25;4977626;28;20563;-84
2023/04/05 00:40:00;;;;;;;0.90;0.40;;;;;;;10.64;65.02;101547.69;4982329;28;20062;-83
2023/04/05 00:42:29;;;;;;;0.40;0.25;;;;;;;10.58;65.02;101549.16;4982792;28;20057;-83
2023/04/05 00:44:57;;;;;;;0.30;0.30;;;;;;;10.37;55.70;101555.16;4993841;28;20050;-84
2023/04/05 00:47:26;;;;;;;0.43;0.13;;;;;;;10.25;57.54;101557.22;4990810;28;20046;-84
2023/04/05 00:49:56;;;;;;;0.10;0.10;;;;;;;10.24;61.75;101548.56;4992865;28;20046;-84
2023/04/05 00:52:25;;;;;;;0.15;0.10;;;;;;;10.21;64.40;101558.75;4985692;28;20091;-84
2023/04/05 00:54:55;;;;;;;0.40;0.28;;;;;;;10.12;60.70;101557.47;4992434;28;20052;-83
2023/04/05 00:57:25;;;;;;;0.47;0.40;;;;;;;10.04;64.24;101552.84;4994827;28;20058;-84
2023/04/05 00:59:53;;;;;;;1.65;0.30;;;;;;;10.05;69.34;101554.63;4987296;28;20065;-82
2023/04/05 01:02:32;;;;;;;0.52;0.32;;;;;;;10.06;69.50;101561.56;4994912;28;20114;-82
2023/04/05 01:05:08;;;;;;;1.55;0.32;;;;;;;10.06;68.25;101560.69;4991103;28;20046;-82
2023/04/05 01:07:43;;;;;;;1.13;0.38;;;;;;;10.13;65.91;101562.72;4994012;28;20046;-82
2023/04/05 01:10:16;;;;;;;3.25;0.70;;;;;;;10.19;66.52;101563.00;4990684;28;20054;-82
2023/04/05 01:12:46;;;;;;;0.32;0.25;;;;;;;10.31;65.83;101566.97;4996604;28;20054;-85
2023/04/05 01:15:14;;;;;;;1.02;0.43;;;;;;;10.33;64.56;101566.22;4993643;28;20571;-83
2023/04/05 01:17:45;;;;;;;0.75;0.40;;;;;;;10.33;61.75;101561.06;4994688;28;20057;-84
2023/04/05 01:20:16;;;;;;;1.42;0.35;;;;;;;10.37;62.33;101564.66;4991690;28;20050;-83
2023/04/05 01:23:23;;;;;;;0.55;0.30;;;;;;;10.35;62.90;101564.56;4994326;28;20515;-85
2023/04/05 01:26:27;;;;;;;0.47;0.45;;;;;;;10.24;62.63;101560.63;4971920;28;20065;-85
2023/04/05 01:29:08;;;;;;;;;;;;;;;10.20;63.56;101575.13;4983174;28;20101;-83
2023/04/05 01:31:46;;;;;;;2.88;0.52;;;;;;;10.14;64.72;101579.13;4987709;28;20009;-82
2023/04/05 01:34:26;;;;;;;0.30;0.20;;;;;;;10.04;66.16;101580.44;4993793;28;20046;-82
2023/04/05 01:36:58;;;;;;;0.52;0.40;;;;;;;9.98;66.79;101570.69;4977957;28;20085;-81
2023/04/05 01:39:28;;;;;;;0.85;0.40;;;;;;;9.95;66.73;101582.59;4987395;28;20054;-80
2023/04/05 01:42:00;;;;;;;0.47;0.30;;;;;;;9.92;68.02;101578.19;4986120;28;20671;-82
2023/04/05 01:44:28;;;;;;;;;;;;;;;9.89;67.84;101583.19;4984616;28;20809;-81
2023/04/05 01:46:58;;;;;;;1.08;0.55;;;;;;;9.81;68.37;101579.38;4980342;28;19933;-82
2023/04/05 01:49:27;;;;;;;1.48;0.75;;;;;;;9.76;69.78;101580.88;4980153;28;20413;-79
2023/04/05 01:51:56;;;;;;;1.90;0.80;;;;;;;9.69;69.32;101574.53;4986322;28;20054;-81
2023/04/05 01:54:24;;;;;;;2.50;0.90;;;;;;;9.62;71.80;101575.97;4987952;28;20081;-81
2023/04/05 01:56:53;;;;;;;1.10;0.60;;;;;;;9.60;72.35;101580.16;4988519;28;20058;-82
2023/04/05 01:59:21;;;;;;;1.27;1.08;;;;;;;9.57;71.65;101586.88;4990766;28;20046;-82
2023/04/05 02:01:50;;;;;;;0.80;0.38;;;;;;;9.49;70.58;101588.22;4989190;28;20043;-83
2023/04/05 02:04:20;;;;;;;2.10;0.55;;;;;;;9.31;69.82;101565.00;4989024;28;20055;-83
2023/04/05 02:06:48;;;;;;;2.08;0.57;;;;;;;9.32;70.76;101577.09;4988280;28;20054;-86
2023/04/05 02:09:17;;;;;;;5.68;0.47;;;;;;;9.33;69.75;101579.75;4989837;28;20055;-82
2023/04/05 02:11:45;;;;;;;0.93;0.45;;;;;;;9.27;69.15;101576.84;4983009;28;20496;-82
2023/04/05 02:14:14;;;;;;;0.45;0.43;;;;;;;9.25;70.30;101581.06;4991502;28;20104;-83
2023/04/05 02:16:43;;;;;;;2.50;1.02;;;;;;;9.20;71.51;101574.81;4988083;28;20054;-81
2023/04/05 02:19:12;;;;;;;2.22;1.10;;;;;;;9.17;72.11;101590.16;4987673;28;20042;-83
2023/04/05 02:21:42;;;;;;;1.05;0.82;;;;;;;9.07;72.76;101570.75;4987353;28;20082;-80
2023/04/05 02:24:11;;;;;;;2.58;0.98;;;;;;;9.04;72.56;101586.06;4988095;28;20042;-79
2023/04/05 02:26:39;;;;;;;0.98;0.65;;;;;;;8.99;72.76;101579.81;4986186;28;20171;-81
2023/04/05 02:29:08;;;;;;;1.90;0.60;;;;;;;8.94;74.08;101578.72;4983134;28;20050;-81
2023/04/05 02:31:36;;;;;;;1.13;0.43;;;;;;;8.90;74.06;101576.78;4991990;28;20149;-79
2023/04/05 02:34:10;;;;;;;2.58;0.70;;;;;;;8.86;75.64;101578.31;4986860;28;20561;-82
2023/04/05 02:36:40;;;;;;;0.93;0.47;;;;;;;8.79;76.19;101579.69;4993257;28;20062;-82
2023/04/05 02:39:12;;;;;;;1.23;0.70;;;;;;;8.67;77.02;101591.13;4983862;28;20039;-80
2023/04/05 02:41:41;;;;;;;0.90;0.60;;;;;;;8.56;77.66;101585.41;4984437;28;20054;-82
2023/04/05 02:44:10;;;;;;;0.75;0.30;;;;;;;8.47;78.27;101590.97;4989513;28;20081;-82
2023/04/05 02:46:38;;;;;;;0.70;0.55;;;;;;;8.43;80.16;101591.66;4986963;28;20420;-80
2023/04/05 02:49:07;;;;;;;1.52;0.68;;;;;;;8.44;80.71;101593.41;4985083;28;20042;-82
2023/04/05 02:51:35;;;;;;;2.17;0.63;;;;;;;8.45;81.54;101604.59;4982373;28;20538;-82
2023/04/05 02:54:04;;;;;;;3.83;0.77;;;;;;;8.37;82.61;101614.50;4990256;28;20516;-80
2023/04/05 02:56:35;;;;;;;1.08;0.50;;;;;;;8.35;82.85;101606.66;4986100;28;20069;-83
2023/04/05 02:59:04;;;;;;;1.20;0.68;;;;;;;8.21;82.00;101593.88;4986784;28;20055;-82
2023/04/05 03:01:35;;;;;;;0.73;0.60;;;;;;;8.16;81.13;101609.97;4986305;28;20137;-83
2023/04/05 03:04:04;;;;;;;1.48;0.28;;;;;;;8.06;82.44;101614.56;4976503;28;20146;-83
2023/04/05 03:06:32;;;;;;;0.63;0.50;;;;;;;8.01;83.19;101621.16;4989465;28;20068;-82
2023/04/05 03:09:03;;;;;;;0.93;0.38;;;;;;;7.98;84.88;101619.31;4986694;28;20101;-82
2023/04/05 03:11:32;;;;;;;0.73;0.30;;;;;;;7.94;85.70;101615.66;4984095;28;20050;-85
2023/04/05 03:14:02;;;;;;;1.42;0.60;;;;;;;7.94;88.02;101625.09;4987775;28;20520;-82
2023/04/05 03:16:31;;;;;;;1.83;0.73;;;;;;;7.82;89.47;101621.88;4986361;28;20054;-83
2023/04/05 03:19:01;;;;;;;1.20;0.70;;;;;;;7.81;90.15;101639.03;4983923;28;20448;-80
2023/04/05 03:21:29;;;;;;;1.58;0.50;;;;;;;7.74;91.12;101630.06;4983236;28;20055;-79
2023/04/05 03:23:58;;;;;;;0.30;0.30;;;;;;;7.76;91.39;101627.56;4987610;28;20117;-80
2023/04/05 03:26:27;;;;;;;1.88;0.40;;;;;;;7.85;92.17;101632.34;4979465;28;20042;-82
2023/04/05 03:28:55;;;;;;;0.90;0.50;;;;;;;7.91;91.79;101633.56;4979640;28;20050;-80
2023/04/05 03:31:28;;;;;;;3.30;0.88;;;;;;;7.96;92.23;101633.81;4992594;28;20497;-82
2023/04/05 03:33:56;;;;;;;0.57;0.50;;;;;;;7.92;93.23;101639.59;4988244;28;20046;-85
2023/04/05 03:36:27;;;;;;;0.70;0.40;;;;;;;7.88;94.18;101643.72;4984616;28;20116;-82
2023/04/05 03:38:56;;;;;;;2.97;0.60;;;;;;;7.91;92.36;101653.28;4988533;28;20046;-82
2023/04/05 03:41:24;;;;;;;1.05;0.60;;;;;;;7.90;92.60;101639.53;4986038;28;20667;-79
2023/04/05 03:43:53;;;;;;;0.65;0.45;;;;;;;7.81;89.81;101636.44;4982276;28;20042;-80
2023/04/05 03:46:21;;;;;;;0.60;0.40;;;;;;;7.92;90.09;101648.19;4982751;28;20050;-79
2023/04/05 03:48:52;;;;;;;0.63;0.32;;;;;;;7.88;90.33;101642.78;4986915;28;20495;-80
2023/04/05 03:51:20;;;;;;;1.05;0.40;;;;;;;7.92;90.56;101655.06;4980722;28;20483;-80
2023/04/05 03:53:49;;;;;;;0.98;0.55;;;;;;;7.90;91.21;101656.66;4979753;28;20051;-80
2023/04/05 03:56:17;;;;;;;0.80;0.50;;;;;;;7.87;90.43;101653.91;4978361;28;20067;-81
2023/04/05 03:58:46;;;;;;;1.20;0.63;;;;;;;7.87;91.91;101653.91;4986468;28;20054;-79
2023/04/05 04:01:15;;;;;;;1.95;0.43;;;;;;;7.89;91.80;101660.06;4984101;28;20049;-80
2023/04/05 04:03:44;;;;;;;1.10;0.40;;;;;;;7.90;91.66;101667.88;4988373;28;20050;-80
2023/04/05 04:06:15;;;;;;;2.38;0.32;;;;;;;7.87;89.77;101656.50;4980687;28;20133;-82
2023/04/05 04:08:43;;;;;;;0.70;0.47;;;;;;;7.91;90.20;101661.03;4980955;28;20054;-83
2023/04/05 04:11:12;;;;;;;1.58;0.60;;;;;;;7.89;89.27;101665.19;4985294;28;20489;-81
2023/04/05 04:13:40;;;;;;;0.52;0.40;;;;;;;7.87;90.03;101662.53;4990553;28;20057;-78
2023/04/05 04:16:09;;;;;;;2.28;0.45;;;;;;;7.86;89.39;101662.47;4978700;28;20061;-81
2023/04/05 04:18:38;;;;;;;0.40;0.38;;;;;;;7.86;89.48;101675.34;4984945;28;20054;-83
2023/04/05 04:21:07;;;;;;;1.10;0.85;;;;;;;7.80;89.08;101680.16;4984124;28;20137;-79
2023/04/05 04:23:37;;;;;;;1.80;0.50;;;;;;;7.72;89.87;101677.16;4991562;28;20050;-82
2023/04/05 04:26:06;;;;;;;0.55;0.43;;;;;;;7.67;90.95;101682.06;4984030;28;20042;-82
2023/04/05 04:28:38;;;;;;;0.75;0.63;;;;;;;7.66;91.04;101679.38;4982630;28;20046;-82
2023/04/05 04:31:08;;;;;;;2.85;0.55;;;;;;;7.67;89.84;101682.06;4987915;28;20046;-80
2023/04/05 04:33:36;;;;;;;1.02;0.40;;;;;;;7.65;89.15;101683.66;4987665;28;20512;-81
2023/04/05 04:36:12;;;;;;;0.85;0.57;;;;;;;7.63;89.52;101693.00;4983932;28;20077;-80
2023/04/05 04:38:43;;;;;;;1.35;0.52;;;;;;;7.50;89.41;101681.09;4982342;28;20609;-81
2023/04/05 04:41:12;;;;;;;2.35;0.55;;;;;;;7.56;89.33;101701.16;4984174;28;20117;-80
2023/04/05 04:43:43;;;;;;;1.05;0.70;;;;;;;7.46;88.96;101684.28;4981535;28;20055;-80
2023/04/05 04:46:17;;;;;;;1.33;0.70;;;;;;;7.46;89.17;101692.00;4981712;28;20134;-80
2023/04/05 04:48:47;;;;;;;2.65;0.90;;;;;;;7.45;88.69;101702.25;4988690;28;20106;-81
2023/04/05 04:51:15;;;;;;;1.23;0.70;;;;;;;7.40;90.11;101699.41;4981077;28;20047;-82
2023/04/05 04:53:45;;;;;;;0.70;0.52;;;;;;;7.33;89.61;101702.44;4980534;28;20063;-79
2023/04/05 04:56:14;;;;;;;0.63;0.38;;;;;;;7.27;91.28;101707.22;4985096;28;20057;-79
2023/04/05 04:58:43;;;;;;;0.52;0.40;;;;;;;7.25;91.36;101725.13;4992438;28;21320;-78
2023/04/05 05:01:11;;;;;;;0.88;0.52;;;;;;;7.23;92.71;101708.72;4986150;28;20054;-79
2023/04/05 05:03:40;;;;;;;1.48;0.50;;;;;;;7.18;92.66;101706.69;4978912;28;20055;-79
2023/04/05 05:06:09;;;;;;;2.28;1.10;;;;;;;7.19;92.75;101704.19;4985665;28;20046;-78
2023/04/05 05:08:37;;;;;;;3.58;1.15;;;;;;;7.20;93.27;101708.53;4982554;28;20180;-79
2023/04/05 05:11:09;;;;;;;1.45;1.10;;;;;;;7.18;92.93;101707.56;4986919;28;20153;-81
2023/04/05 05:13:38;;;;;;;1.63;1.05;;;;;;;7.24;93.07;101719.88;4982121;28;20050;-79
2023/04/05 05:16:09;;;;;;;1.58;0.82;;;;;;;7.23;93.60;101721.59;4988333;28;20109;-79
2023/04/05 05:18:39;;;;;;;1.75;0.90;;;;;;;7.24;93.49;101723.38;4988872;28;20060;-79
2023/04/05 05:21:07;;;;;;;2.67;1.08;;;;;;;7.20;93.31;101711.13;4984688;28;20061;-79
2023/04/05 05:23:36;;;;;;;0.50;0.50;;;;;;;7.18;93.77;101712.72;4983144;28;20524;-80
2023/04/05 05:26:05;;;;;;;2.00;0.60;;;;;;;7.15;94.58;101712.53;4980230;28;20493;-79
2023/04/05 05:28:35;;;;;;;1.20;0.68;;;;;;;7.07;96.43;101718.91;4990186;28;20046;-80
2023/04/05 05:31:07;;;;;;;1.58;0.80;;;;;;;7.00;96.43;101719.34;4991116;28;20046;-79
2023/04/05 05:33:36;;;;;;;6.10;0.80;;;;;;;6.95;97.06;101715.63;4983285;28;20560;-79
2023/04/05 05:36:06;;;;;;;0.90;0.80;;;;;;;6.93;98.18;101725.81;4992221;28;20051;-78
2023/04/05 05:38:34;;;;;;;0.90;0.70;;;;;;;6.92;97.82;101718.91;4988669;28;20050;-80
2023/04/05 05:41:03;;;;;;;1.67;0.80;;;;;;;6.94;96.84;101719.88;4988531;28;20054;-81
2023/04/05 05:43:31;;;;;;;1.88;0.80;;;;;;;6.96;96.99;101727.69;4989165;28;20054;-80
2023/04/05 05:46:03;;;;;;;2.55;1.13;;;;;;;6.93;96.34;101721.53;4987723;28;20562;-80
2023/04/05 05:48:32;;;;;;;2.78;1.30;;;;;;;6.87;97.40;101723.78;4987473;28;20047;-80
2023/04/05 05:51:08;;;;;;;2.50;0.80;;;;;;;6.81;96.43;101720.81;4990266;28;20440;-79
2023/04/05 05:53:37;;;;;;;2.65;1.52;;;;;;;6.81;97.18;101725.97;4988884;28;20484;-81
2023/04/05 05:56:06;;;;;;;1.40;0.93;;;;;;;6.81;97.44;101723.41;4991397;28;20689;-81
2023/04/05 05:58:35;;;;;;;1.85;0.80;;;;;;;6.85;96.79;101725.38;4978426;28;20039;-81
2023/04/05 06:01:07;;;;;;;1.35;0.55;;;;;;;6.87;95.73;101718.63;4988229;28;20050;-80
2023/04/05 06:03:36;;;;;;;1.90;0.90;;;;;;;6.89;94.03;101722.19;4989244;28;20089;-78
2023/04/05 06:06:07;;;;;;;0.88;0.45;;;;;;;6.92;94.47;101718.91;4988389;28;20089;-79
2023/04/05 06:08:35;;;;;;;0.88;0.60;;;;;;;6.93;94.45;101729.25;4988510;28;20054;-78
2023/04/05 06:11:04;;;;;;;1.13;0.60;;;;;;;6.92;94.91;101722.34;4992107;28;20058;-78
2023/04/05 06:13:32;;;;;;;2.97;0.80;;;;;;;6.94;94.89;101725.03;4988194;28;20051;-79
2023/04/05 06:16:04;;;;;;;6.22;0.77;;;;;;;6.87;96.34;101723.78;4986866;28;20052;-79
2023/04/05 06:18:33;;;;;;;2.13;0.98;;;;;;;6.86;95.38;101719.41;4988362;28;20050;-78
2023/04/05 06:21:01;;;;;;;1.35;0.82;;;;;;;6.89;96.59;101722.19;4989124;28;20814;-78
2023/04/05 06:23:30;;;;;;;2.25;0.98;;;;;;;6.82;95.63;101709.72;4988623;28;21140;-79
2023/04/05 06:25:59;;;;;;;1.42;0.80;;;;;;;6.84;96.81;101721.00;4987353;28;20111;-79
2023/04/05 06:28:27;;;;;;;1.92;0.77;;;;;;;6.84;95.87;101715.84;4991097;28;20043;-79
2023/04/05 06:30:58;;;;;;;0.88;0.70;;;;;;;6.85;95.19;101712.50;4985067;28;20543;-78
2023/04/05 06:33:29;;;;;;;1.58;0.80;;;;;;;6.90;94.72;101718.81;4991011;28;20554;-79
2023/04/05 06:35:57;;;;;;;2.60;0.98;;;;;;;6.89;95.06;101709.31;4983900;28;20051;-79
2023/04/05 06:38:26;;;;;;;3.05;0.80;;;;;;;6.81;94.62;101717.38;4987977;28;20544;-79
2023/04/05 06:40:54;;;;;;;2.53;0.95;;;;;;;6.83;95.54;101721.81;4988934;28;20046;-79
2023/04/05 06:43:23;;;;;;;1.05;0.80;;;;;;;6.80;96.46;101718.16;4988783;28;20051;-79
2023/04/05 06:45:51;;;;;;;2.47;1.02;;;;;;;6.79;95.89;101732.69;4986168;28;20105;-80
2023/04/05 06:48:28;;;;;;;1.25;0.90;;;;;;;6.76;95.64;101724.81;4990960;28;20125;-80
2023/04/05 06:51:02;;;;;;;3.00;1.00;;;;;;;6.78;97.07;101737.75;4987870;28;20530;-80
2023/04/05 06:53:31;;;;;;;3.15;0.95;;;;;;;6.80;96.89;101729.31;4984656;28;20076;-80
2023/04/05 06:56:06;;;;;;;2.22;0.80;;;;;;;6.83;96.85;101731.22;4988330;28;20682;-80
2023/04/05 06:58:35;;;;;;;1.48;0.80;;;;;;;6.83;95.34;101729.53;4981120;28;20603;-80
2023/04/05 07:01:04;;;;;;;2.75;1.15;;;;;;;6.81;94.90;101725.09;4988725;28;20046;-80
2023/04/05 07:03:33;;;;;;;1.48;0.70;;;;;;;6.83;94.67;101732.09;4990368;28;20500;-79
2023/04/05 07:06:03;;;;;;;1.52;1.05;;;;;;;6.77;93.13;101724.00;4990620;28;20044;-79
2023/04/05 07:08:33;;;;;;;2.05;1.02;;;;;;;6.77;91.78;101733.41;4985651;28;20050;-80
2023/04/05 07:11:01;;;;;;;1.58;0.93;;;;;;;6.75;92.19;101733.31;4988182;28;20520;-80
2023/04/05 07:13:30;;;;;;;2.75;0.93;;;;;;;6.69;91.14;101730.38;4986601;28;20133;-81
2023/04/05 07:16:02;;;;;;;6.10;1.02;;;;;;;6.62;92.46;101736.84;4986999;28;20042;-80
2023/04/05 07:18:30;;;;;;;1.33;0.70;;;;;;;6.50;92.69;101724.13;4987770;28;20378;-79
2023/04/05 07:21:03;;;;;;;2.22;0.95;;;;;;;6.53;92.23;101737.94;4989147;28;20077;-80
2023/04/05 07:23:33;;;;;;;1.00;0.80;;;;;;;6.47;92.92;101739.34;4987796;28;20047;-79
2023/04/05 07:26:04;;;;;;;4.63;1.27;;;;;;;6.45;93.80;101742.63;4990707;28;20054;-80
2023/04/05 07:28:34;;;;;;;1.50;0.88;;;;;;;6.43;93.17;101749.34;4986509;28;20133;-80
2023/04/05 07:31:03;;;;;;;1.98;0.90;;;;;;;6.36;93.09;101737.78;4988441;28;20050;-81
2023/04/05 07:33:32;;;;;;;3.95;1.08;;;;;;;6.33;93.16;101739.28;4985890;28;20082;-79
2023/04/05 07:36:02;;;;;;;0.80;0.80;;;;;;;6.28;92.77;101746.72;4992998;28;20643;-79
2023/04/05 07:38:30;;;;;;;2.05;1.10;;;;;;;6.22;93.46;101742.06;4988285;28;20064;-80
2023/04/05 07:41:00;;;;;;;1.65;0.98;;;;;;;6.19;93.17;101748.72;4981729;28;20043;-79
2023/04/05 07:43:29;;;;;;;1.77;1.05;;;;;;;6.13;92.79;101748.31;4988469;28;20050;-80
2023/04/05 07:46:03;;;;;;;1.50;0.95;;;;;;;6.04;92.98;101743.47;4986991;28;20116;-80
2023/04/05 07:48:32;;;;;;;1.38;0.60;;;;;;;6.00;93.73;101744.97;4982675;28;20492;-80
2023/04/05 07:51:12;;;;;;;1.15;0.82;;;;;;;6.00;94.41;101752.69;4984299;28;20050;-80
2023/04/05 07:53:41;;;;;;;1.20;0.80;;;;;;;5.97;94.44;101749.91;4989287;28;20046;-79
2023/04/05 07:56:13;;;;;;;1.63;0.93;;;;;;;5.94;94.55;101754.84;4986003;28;20145;-80
2023/04/05 07:58:41;;;;;;;1.35;0.68;;;;;;;5.89;95.02;101745.94;4983886;28;20046;-80
2023/04/05 08:01:11;;;;;;;3.90;0.80;;;;;;;5.85;95.00;101754.22;4986041;28;20046;-79
2023/04/05 08:03:40;;;;;;;1.60;0.90;;;;;;;5.85;95.20;101754.22;4987226;28;20165;-79
2023/04/05 08:06:12;;;;;;;1.30;0.95;;;;;;;5.81;95.26;101757.38;4987624;28;20042;-79
2023/04/05 08:08:41;;;;;;;2.78;0.93;;;;;;;5.77;95.70;101755.41;4983377;28;20047;-80
2023/04/05 08:11:11;;;;;;;2.13;1.10;;;;;;;5.74;96.08;101753.53;4986230;28;20771;-80
2023/04/05 08:13:40;;;;;;;1.80;0.93;;;;;;;5.73;95.98;101756.00;4986083;28;20061;-80
2023/04/05 08:16:09;;;;;;;2.13;0.90;;;;;;;5.70;95.87;101758.34;4985642;28;20038;-80
2023/04/05 08:18:38;;;;;;;3.10;1.40;;;;;;;5.65;95.00;101753.81;4982638;28;20073;-80
2023/04/05 08:21:07;;;;;;;1.80;1.00;;;;;;;5.52;95.99;101753.81;4984563;28;20681;-81
2023/04/05 08:23:35;;;;;;;1.35;0.90;;;;;;;5.42;97.73;101766.81;4987307;28;20065;-81
2023/04/05 08:26:04;;;;;;;1.10;0.70;;;;;;;5.35;98.80;101765.50;4988942;28;20186;-80
2023/04/05 08:28:35;;;;;;;2.25;0.88;;;;;;;5.31;99.37;101768.66;4979705;28;20054;-80
2023/04/05 08:31:03;;;;;;;1.45;0.68;;;;;;;5.25;99.65;101766.59;4985569;28;20042;-80
2023/04/05 08:33:32;;;;;;;1.42;1.20;;;;;;;5.24;98.69;101764.81;4984668;28;20058;-80
2023/04/05 08:36:06;;;;;;;1.55;0.77;;;;;;;5.22;99.21;101762.91;4982374;28;20062;-79
2023/04/05 08:38:34;;;;;;;9.68;1.30;;;;;;;5.22;99.56;101768.97;4982259;28;20046;-79
2023/04/05 08:41:14;;;;;;;1.25;0.93;;;;;;;5.19;98.09;101760.16;4975305;28;20050;-79
2023/04/05 08:43:57;;;;;;;2.75;1.10;;;;;;;5.13;98.09;101757.16;4977756;28;20120;-79
2023/04/05 08:46:25;;;;;;;;;;;;;;;5.13;98.21;101765.78;4981321;28;20043;-79
2023/04/05 08:48:55;;;;;;;3.03;1.52;;;;;;;5.10;97.45;101762.09;4990556;28;20048;-79
2023/04/05 08:51:24;;;;;;;1.60;0.95;;;;;;;5.01;96.77;101763.25;4973237;28;20046;-79
2023/04/05 08:53:54;;;;;;;1.10;0.68;;;;;;;5.01;97.85;101767.47;4985752;28;20108;-79
2023/04/05 08:56:27;;;;;;;1.55;1.00;;;;;;;4.99;97.64;101763.91;4979804;28;20046;-79
2023/04/05 08:59:02;;;;;;;3.55;1.30;;;;;;;4.97;97.08;101770.63;4983332;28;20046;-79
2023/04/05 09:01:32;;;;;;;1.33;0.82;;;;;;;4.93;96.96;101766.09;4978773;28;20058;-79
2023/04/05 09:04:03;;;;;;;1.23;0.85;;;;;;;4.90;97.38;101769.34;4991415;28;20493;-80
2023/04/05 09:06:32;;;;;;;1.42;0.90;;;;;;;4.87;98.08;101768.22;4987651;28;20488;-79
2023/04/05 09:09:00;;;;;;;3.20;0.90;;;;;;;4.83;97.43;101768.03;4990968;28;20532;-79
2023/04/05 09:11:29;;;;;;;1.13;0.70;;;;;;;4.77;96.55;101765.03;4985534;28;20054;-79
2023/04/05 09:13:59;;;;;;;2.85;0.82;;;;;;;4.74;95.82;101767.41;4990733;28;20046;-81
2023/04/05 09:16:28;;;;;;;1.25;0.77;;;;;;;4.69;97.02;101763.59;4992678;28;20065;-80
2023/04/05 09:18:57;;;;;;;1.15;1.02;;;;;;;4.58;97.30;101751.72;4987302;28;20160;-79
2023/04/05 09:21:28;;;;;;;5.45;1.20;;;;;;;4.65;97.61;101768.41;4987523;28;20059;-79
2023/04/05 09:23:57;;;;;;;5.03;1.00;;;;;;;4.59;97.55;101759.50;4990693;28;20677;-78
2023/04/05 09:26:26;;;;;;;1.63;0.95;;;;;;;4.58;97.23;101760.31;4985978;28;20058;-78
2023/04/05 09:28:55;;;;;;;3.83;1.40;;;;;;;4.54;96.89;101757.44;4988361;28;20587;-78
2023/04/05 09:31:35;;;;;;;2.55;0.88;;;;;;;4.51;97.58;101763.22;4984744;28;20049;-78
2023/04/05 09:34:05;;;;;;;1.85;0.90;;;;;;;4.51;98.06;101772.56;4987411;28;20105;-80
2023/04/05 09:36:35;;;;;;;1.77;1.00;;;;;;;4.49;98.57;101761.31;4989676;28;20057;-78
2023/04/05 09:39:07;;;;;;;2.08;0.80;;;;;;;4.48;99.70;101763.00;4991314;28;20124;-79
2023/04/05 09:41:38;;;;;;;1.67;0.70;;;;;;;4.51;99.63;101762.31;4988491;28;20046;-78
2023/04/05 09:44:06;;;;;;;1.45;1.13;;;;;;;4.48;99.70;101757.00;4987160;28;20157;-81
2023/04/05 09:46:37;;;;;;;2.70;1.63;;;;;;;4.47;99.15;101755.22;4989756;28;20090;-78
2023/04/05 09:49:08;;;;;;;5.47;3.08;;;;;;;4.45;99.51;101746.53;4979074;28;20103;-78
2023/04/05 09:51:39;;;;;;;4.35;2.42;;;;;;;4.41;99.31;101746.31;4981607;28;20086;-78
2023/04/05 09:54:09;;;;;;;8.90;2.85;;;;;;;4.43;99.55;101758.34;4989435;28;20070;-78
2023/04/05 09:56:39;;;;;;;3.22;1.75;;;;;;;4.39;99.25;101752.97;4990208;28;20102;-78
2023/04/05 09:59:09;;;;;;;2.78;1.73;;;;;;;4.34;100.00;101753.47;4984783;28;20093;-78
2023/04/05 10:01:40;;;;;;;4.30;1.70;;;;;;;4.34;100.00;101750.91;4986903;28;20149;-78
2023/04/05 10:04:08;;;;;;;2.08;1.40;;;;;;;4.33;100.00;101750.00;4989784;28;20512;-78
2023/04/05 10:06:38;;;;;;;1.58;1.23;;;;;;;4.36;100.00;101747.66;4984161;28;20095;-78
2023/04/05 10:09:08;;;;;;;4.22;1.60;;;;;;;4.41;100.00;101756.53;4987354;28;20058;-78
2023/04/05 10:11:37;;;;;;;2.85;1.52;;;;;;;4.38;100.00;101740.09;4989735;28;20050;-78
2023/04/05 10:14:07;;;;;;;2.97;1.23;;;;;;;4.34;100.00;101738.97;4983038;28;20050;-78
2023/04/05 10:16:45;;;;;;;2.85;1.30;;;;;;;4.37;100.00;101741.72;4986146;28;20042;-79
2023/04/05 10:19:20;;;;;;;2.10;1.08;;;;;;;4.40;100.00;101739.41;4982961;28;20105;-79
2023/04/05 10:21:50;;;;;;;4.78;1.30;;;;;;;4.38;100.00;101740.97;4989262;28;20124;-80
2023/04/05 10:24:35;;;;;;;3.33;1.33;;;;;;;4.39;100.00;101745.28;4991134;28;20740;-79
2023/04/05 10:27:15;;;;;;;4.95;2.00;;;;;;;4.40;100.00;101744.53;4983421;28;20125;-79
2023/04/05 10:29:49;;;;;;;2.55;1.80;;;;;;;4.40;100.00;101746.22;4987761;28;20045;-79
2023/04/05 10:32:30;;;;;;;2.28;0.75;;;;;;;4.38;100.00;101750.34;4987667;28;20054;-79
2023/04/05 10:35:09;;;;;;;1.67;0.90;;;;;;;4.41;100.00;101751.41;4986589;28;20057;-79
2023/04/05 10:37:49;;;;;;;3.67;1.25;;;;;;;4.44;100.00;101745.63;4987298;28;20149;-79
2023/04/05 10:40:23;;;;;;;2.28;1.10;;;;;;;4.48;100.00;101747.63;4983775;28;20051;-79
2023/04/05 10:42:52;;;;;;;1.83;0.80;;;;;;;4.50;100.00;101747.75;4990184;28;20056;-80
2023/04/05 10:45:21;;;;;;;2.03;0.95;;;;;;;4.53;100.00;101743.69;4985369;28;20097;-79
2023/04/05 10:48:11;;;;;;;1.77;1.15;;;;;;;4.57;100.00;101750.81;4984582;28;20070;-79
2023/04/05 10:50:40;;;;;;;2.03;1.20;;;;;;;4.57;100.00;101739.69;4988707;28;20049;-80
2023/04/05 10:53:11;;;;;;;1.65;1.20;;;;;;;4.58;100.00;101744.94;4990055;28;20081;-79
2023/04/05 10:55:40;;;;;;;6.60;1.50;;;;;;;4.56;100.00;101743.06;4991957;28;20590;-79
2023/04/05 10:58:10;;;;;;;2.38;1.52;;;;;;;4.58;100.00;101741.44;4986824;28;20062;-79
2023/04/05 11:00:40;;;;;;;3.85;1.40;;;;;;;4.56;100.00;101741.38;4987608;28;20101;-79
2023/04/05 11:03:10;;;;;;;4.55;1.23;;;;;;;4.58;100.00;101754.28;4989173;28;20054;-80
2023/04/05 11:05:39;;;;;;;4.47;1.02;;;;;;;4.57;100.00;101748.25;4987368;28;20527;-80
2023/04/05 11:08:08;;;;;;;3.00;0.98;;;;;;;4.55;100.00;101743.81;4986161;28;20129;-80
2023/04/05 11:10:39;;;;;;;1.80;1.15;;;;;;;4.55;100.00;101748.94;4991103;28;20159;-79
2023/04/05 11:13:09;;;;;;;2.15;0.98;;;;;;;4.50;100.00;101745.19;4986069;28;20145;-79
2023/04/05 11:15:38;;;;;;;1.60;0.93;;;;;;;4.43;100.00;101745.53;4988817;28;20046;-79
2023/04/05 11:18:21;;;;;;;2.60;1.00;;;;;;;4.41;100.00;101742.84;4988917;28;20050;-79
2023/04/05 11:20:51;;;;;;;2.53;1.17;;;;;;;4.39;100.00;101746.97;4982741;28;20054;-79
2023/04/05 11:23:21;;;;;;;3.92;1.00;;;;;;;4.39;100.00;101747.84;4990943;28;20090;-79
2023/04/05 11:25:53;;;;;;;3.30;1.10;;;;;;;4.34;100.00;101738.09;4986841;28;20074;-79
2023/04/05 11:28:26;;;;;;;2.20;0.93;;;;;;;4.40;100.00;101744.53;4986352;28;20487;-78
2023/04/05 11:30:57;;;;;;;1.63;1.10;;;;;;;4.41;100.00;101750.53;4988292;28;20104;-78
2023/04/05 11:33:55;;;;;;;2.38;1.25;;;;;;;4.38;100.00;101746.09;4974477;28;20054;-78
2023/04/05 11:36:40;;;;;;;1.85;1.13;;;;;;;4.36;100.00;101745.09;4985744;28;20084;-78
2023/04/05 11:39:27;;;;;;;3.03;1.17;;;;;;;4.33;100.00;101751.66;4981970;28;20062;-78
2023/04/05 11:41:59;;;;;;;1.10;0.70;;;;;;;4.34;100.00;101743.22;4979676;28;20085;-78
2023/04/05 11:44:29;;;;;;;1.73;0.88;;;;;;;4.34;100.00;101744.09;4974815;28;20050;-78
2023/04/05 11:46:57;;;;;;;2.45;1.15;;;;;;;4.39;100.00;101741.84;4983648;28;20046;-77